Time;durP1;ratioP1;P1;durP2;ratioP2;P2;SDS_P1;SDS_P2;PMS_P1;PMS_P2;Temp;Humidity;BMP_temperature;BMP_pressure;BME280_temperature;BME280_humidity;BME280_pressure;Samples;Min_cycle;Max_cycle;Signal;HPM_P1;HPM_P2
2023/08/09 00:02:09;;;;;;;9.75;8.32;;;;;;;;;;5090138;28;20032;-79
2023/08/09 00:04:35;;;;;;;11.77;8.48;;;;;;;;;;5092198;28;20012;-76
2023/08/09 00:07:01;;;;;;;8.98;8.15;;;;;;;;;;5091549;28;20073;-80
2023/08/09 00:09:27;;;;;;;14.13;8.70;;;;;;;;;;5087958;28;20115;-78
2023/08/09 00:11:53;;;;;;;10.38;8.80;;;;;;;;;;5083510;28;20480;-80
2023/08/09 00:14:19;;;;;;;9.02;8.13;;;;;;;;;;5092073;28;20028;-77
2023/08/09 00:16:45;;;;;;;14.70;13.20;;;;;;;;;;5092108;28;20438;-75
2023/08/09 00:19:11;;;;;;;11.88;8.15;;;;;;;;;;5092370;28;20020;-80
2023/08/09 00:21:38;;;;;;;11.80;10.13;;;;;;;;;;5097167;28;20020;-75
2023/08/09 00:24:04;;;;;;;9.90;8.90;;;;;;;;;;5100464;28;20016;-77
2023/08/09 00:26:30;;;;;;;9.18;8.15;;;;;;;;;;5099693;28;20488;-79
2023/08/09 00:28:57;;;;;;;10.48;8.25;;;;;;;;;;5100122;28;20490;-77
2023/08/09 00:31:23;;;;;;;12.35;8.80;;;;;;;;;;5099071;28;20038;-76
2023/08/09 00:33:49;;;;;;;10.57;8.63;;;;;;;;;;5098655;28;20024;-78
2023/08/09 00:36:15;;;;;;;10.95;8.35;;;;;;;;;;5099129;28;20024;-77
2023/08/09 00:38:43;;;;;;;9.65;7.72;;;;;;;;;;5098854;28;20028;-76
2023/08/09 00:41:09;;;;;;;9.88;8.75;;;;;;;;;;5098650;28;20111;-79
2023/08/09 00:43:35;;;;;;;10.65;8.05;;;;;;;;;;5099086;28;20129;-77
2023/08/09 00:46:01;;;;;;;10.45;8.57;;;;;;;;;;5098647;28;20056;-82
2023/08/09 00:48:27;;;;;;;9.65;8.00;;;;;;;;;;5098532;28;20031;-78
2023/08/09 00:50:53;;;;;;;11.55;8.45;;;;;;;;;;5100588;28;20095;-78
2023/08/09 00:53:21;;;;;;;9.57;8.65;;;;;;;;;;5099098;28;20022;-78
2023/08/09 00:55:47;;;;;;;10.45;7.90;;;;;;;;;;5099575;28;20023;-77
2023/08/09 00:58:13;;;;;;;9.52;8.52;;;;;;;;;;5099659;28;20114;-76
2023/08/09 01:00:39;;;;;;;9.25;7.97;;;;;;;;;;5098064;28;20052;-78
2023/08/09 01:03:06;;;;;;;10.80;8.55;;;;;;;;;;5097998;28;20016;-80
2023/08/09 01:05:44;;;;;;;12.82;8.27;;;;;;;;;;5099588;28;20024;-78
2023/08/09 01:08:17;;;;;;;11.98;8.30;;;;;;;;;;5097250;28;20032;-80
2023/08/09 01:11:16;;;;;;;8.95;7.72;;;;;;;;;;5094699;28;20019;-78
2023/08/09 01:13:44;;;;;;;10.75;7.90;;;;;;;;;;5046714;28;20030;-79
2023/08/09 01:16:11;;;;;;;11.40;7.63;;;;;;;;;;5012701;28;20045;-79
2023/08/09 01:18:40;;;;;;;11.63;8.63;;;;;;;;;;5027594;28;20091;-80
2023/08/09 01:21:06;;;;;;;9.02;8.13;;;;;;;;;;5008928;28;20022;-80
2023/08/09 01:23:39;;;;;;;10.85;8.65;;;;;;;;;;5010199;28;20037;-77
2023/08/09 01:26:05;;;;;;;10.23;8.07;;;;;;;;;;5018756;28;20033;-80
2023/08/09 01:28:32;;;;;;;10.95;8.68;;;;;;;;;;5035557;28;20126;-81
2023/08/09 01:30:58;;;;;;;12.50;8.77;;;;;;;;;;5020349;28;20033;-81
2023/08/09 01:33:25;;;;;;;9.75;8.75;;;;;;;;;;5017910;28;20048;-78
2023/08/09 01:36:00;;;;;;;12.15;8.95;;;;;;;;;;5016545;28;20501;-79
2023/08/09 01:38:29;;;;;;;9.90;8.85;;;;;;;;;;5017172;28;20017;-79
2023/08/09 01:40:56;;;;;;;10.73;8.77;;;;;;;;;;5017290;28;20025;-79
2023/08/09 01:43:23;;;;;;;10.20;8.85;;;;;;;;;;5017006;28;20432;-78
2023/08/09 01:45:51;;;;;;;10.27;9.00;;;;;;;;;;5017472;28;20051;-80
2023/08/09 01:48:18;;;;;;;11.82;9.45;;;;;;;;;;5018928;28;20425;-79
2023/08/09 01:50:45;;;;;;;12.98;8.88;;;;;;;;;;5054508;28;20025;-77
2023/08/09 01:53:11;;;;;;;9.63;8.65;;;;;;;;;;5054607;28;20127;-80
2023/08/09 01:55:38;;;;;;;9.52;8.63;;;;;;;;;;5055212;28;20018;-79
2023/08/09 01:58:04;;;;;;;10.95;8.43;;;;;;;;;;5053036;28;20021;-77
2023/08/09 02:00:30;;;;;;;9.73;8.48;;;;;;;;;;5044841;28;20120;-79
2023/08/09 02:02:57;;;;;;;10.88;9.02;;;;;;;;;;5054581;28;20029;-79
2023/08/09 02:05:23;;;;;;;9.85;8.63;;;;;;;;;;5055846;28;20092;-79
2023/08/09 02:07:50;;;;;;;9.38;8.48;;;;;;;;;;5055802;28;20029;-77
2023/08/09 02:10:17;;;;;;;11.43;9.52;;;;;;;;;;5054394;28;20032;-77
2023/08/09 02:12:50;;;;;;;13.45;9.52;;;;;;;;;;5054256;28;20025;-78
2023/08/09 02:15:17;;;;;;;9.18;8.25;;;;;;;;;;5066146;28;20061;-77
2023/08/09 02:17:44;;;;;;;9.10;8.10;;;;;;;;;;5095870;28;20046;-76
2023/08/09 02:20:11;;;;;;;10.63;8.57;;;;;;;;;;5094038;28;20032;-79
2023/08/09 02:22:37;;;;;;;12.73;9.20;;;;;;;;;;5095428;28;20020;-78
2023/08/09 02:25:06;;;;;;;9.18;7.95;;;;;;;;;;5086659;28;20032;-78
2023/08/09 02:27:33;;;;;;;13.35;8.88;;;;;;;;;;5073784;28;20116;-78
2023/08/09 02:30:02;;;;;;;10.30;8.48;;;;;;;;;;5075123;28;20358;-79
2023/08/09 02:32:29;;;;;;;8.80;7.97;;;;;;;;;;5073644;28;20018;-75
2023/08/09 02:34:55;;;;;;;10.10;8.85;;;;;;;;;;5075193;28;20024;-77
2023/08/09 02:37:21;;;;;;;9.73;8.40;;;;;;;;;;5073942;28;20115;-79
2023/08/09 02:39:47;;;;;;;9.95;8.82;;;;;;;;;;5074520;28;20099;-77
2023/08/09 02:42:13;;;;;;;10.13;9.13;;;;;;;;;;5073960;28;20472;-80
2023/08/09 02:44:39;;;;;;;11.25;8.95;;;;;;;;;;5080794;28;20049;-78
2023/08/09 02:47:05;;;;;;;10.95;8.80;;;;;;;;;;5093761;28;20062;-75
2023/08/09 02:49:31;;;;;;;11.43;10.05;;;;;;;;;;5095312;28;20107;-78
2023/08/09 02:51:58;;;;;;;10.02;9.05;;;;;;;;;;5093867;28;20054;-77
2023/08/09 02:54:24;;;;;;;15.65;8.95;;;;;;;;;;5093529;28;20043;-77
2023/08/09 02:56:50;;;;;;;9.13;8.32;;;;;;;;;;5094945;28;20028;-77
2023/08/09 02:59:16;;;;;;;9.40;8.50;;;;;;;;;;5093720;28;20085;-77
2023/08/09 03:01:46;;;;;;;10.48;9.00;;;;;;;;;;5093566;28;20055;-78
2023/08/09 03:04:13;;;;;;;10.40;8.45;;;;;;;;;;5103803;28;20087;-75
2023/08/09 03:06:39;;;;;;;9.65;8.68;;;358.90;2329.60;;;;;;5113045;28;20024;-79
2023/08/09 03:09:06;;;;;;;12.70;9.48;;;358.80;2329.60;;;;;;5093505;28;20161;-78
2023/08/09 03:11:32;;;;;;;12.13;9.90;;;358.90;2329.60;;;;;;5088850;28;20024;-76
2023/08/09 03:13:57;;;;;;;12.20;9.50;;;358.70;2329.60;;;;;;5075362;28;20020;-77
2023/08/09 03:16:23;;;;;;;11.98;9.18;;;358.80;2329.60;;;;;;5073287;28;20396;-79
2023/08/09 03:18:49;;;;;;;11.23;8.40;;;358.80;2329.60;;;;;;5072987;28;20123;-76
2023/08/09 03:21:15;;;;;;;9.45;8.45;;;358.90;2329.60;;;;;;5074256;28;20090;-77
2023/08/09 03:23:41;;;;;;;9.52;8.55;;;358.90;2329.60;;;;;;5073834;28;20419;-77
2023/08/09 03:26:07;;;;;;;10.02;8.48;;;358.90;2329.60;;;;;;5074227;28;20048;-77
2023/08/09 03:28:33;;;;;;;13.75;9.77;;;358.90;2329.60;;;;;;5072435;28;20131;-78
2023/08/09 03:30:59;;;;;;;10.70;9.60;;;358.90;2329.60;;;;;;5072848;28;20035;-78
2023/08/09 03:33:26;;;;;;;10.63;9.52;;;358.80;2329.60;;;;;;5074087;28;20024;-76
2023/08/09 03:35:52;;;;;;;10.00;9.07;;;358.80;2329.60;;;;;;5072419;28;20021;-78
2023/08/09 03:38:17;;;;;;;11.75;8.82;;;358.70;2329.60;;;;;;5072638;28;20024;-78
2023/08/09 03:40:43;;;;;;;9.75;8.75;;;358.80;2329.60;;;;;;5073691;28;20472;-75
2023/08/09 03:43:09;;;;;;;11.15;8.50;;;358.80;2329.60;;;;;;5072209;28;20029;-77
2023/08/09 03:45:35;;;;;;;12.13;9.90;;;358.90;2329.60;;;;;;5072650;28;20024;-77
2023/08/09 03:48:01;;;;;;;10.70;9.63;;;358.90;2329.60;;;;;;5073850;28;20024;-75
2023/08/09 03:50:27;;;;;;;10.90;9.80;;;358.80;2329.60;;;;;;5072272;28;20031;-77
2023/08/09 03:52:53;;;;;;;12.65;9.15;;;358.70;2329.60;;;;;;5072474;28;20029;-77
2023/08/09 03:55:19;;;;;;;12.63;8.00;;;358.60;2329.60;;;;;;5073296;28;20411;-75
2023/08/09 03:57:45;;;;;;;11.00;8.13;;;;;;;;;;5072226;28;20100;-78
2023/08/09 04:00:17;;;;;;;11.35;8.88;;;;;;;;;;5072325;28;20024;-78
2023/08/09 04:02:44;;;;;;;8.97;8.00;;;;;;;;;;5072412;28;20040;-78
2023/08/09 04:05:10;;;;;;;10.90;8.50;;;;;;;;;;5072032;28;20032;-80
2023/08/09 04:07:37;;;;;;;9.90;8.07;;;;;;;;;;5072312;28;20036;-78
2023/08/09 04:10:04;;;;;;;9.27;8.23;;;;;;;;;;5072381;28;20044;-76
2023/08/09 04:12:30;;;;;;;9.35;8.45;;;;;;;;;;5071626;28;20028;-76
2023/08/09 04:14:57;;;;;;;9.98;8.98;;;;;;;;;;5072123;28;20543;-79
2023/08/09 04:17:23;;;;;;;12.10;8.40;;;;;;;;;;5071996;28;20020;-77
2023/08/09 04:19:49;;;;;;;11.70;8.80;;;;;;;;;;5072191;28;20476;-79
2023/08/09 04:22:15;;;;;;;10.30;8.43;;;;;;;;;;5072225;28;20032;-78
2023/08/09 04:24:41;;;;;;;12.80;9.32;;;;;;;;;;5071917;28;20043;-78
2023/08/09 04:27:07;;;;;;;11.23;9.52;;;;;;;;;;5072312;28;20060;-78
2023/08/09 04:29:33;;;;;;;15.90;9.93;;;;;;;;;;5072522;28;20415;-80
2023/08/09 04:31:59;;;;;;;13.07;9.18;;;;;;;;;;5072364;28;20020;-78
2023/08/09 04:34:25;;;;;;;14.02;8.75;;;;;;;;;;5072666;28;20380;-77
2023/08/09 04:36:52;;;;;;;9.95;8.25;;;;;;;;;;5072201;28;20031;-79
2023/08/09 04:39:18;;;;;;;9.15;8.25;;;;;;;;;;5071494;28;20027;-79
2023/08/09 04:41:45;;;;;;;13.05;8.07;;;;;;;;;;5072130;28;20048;-80
2023/08/09 04:44:11;;;;;;;10.57;7.82;;;;;;;;;;5072964;28;20488;-80
2023/08/09 04:46:37;;;;;;;12.27;9.93;;;;;;;;;;5073077;28;20033;-77
2023/08/09 04:49:03;;;;;;;11.70;9.43;;;;;;;;;;5071861;28;20353;-79
2023/08/09 04:51:29;;;;;;;10.13;8.95;;;;;;;;;;5073248;28;20017;-78
2023/08/09 04:53:55;;;;;;;12.90;8.18;;;;;;;;;;5071597;28;20115;-80
2023/08/09 04:56:22;;;;;;;10.60;8.68;;;;;;;;;;5072101;28;20020;-78
2023/08/09 04:58:48;;;;;;;10.95;9.68;;;;;;;;;;5072859;28;20054;-75
2023/08/09 05:01:14;;;;;;;11.88;10.48;;;;;;;;;;5073149;28;20070;-78
2023/08/09 05:03:40;;;;;;;11.57;9.43;;;;;;;;;;5072742;28;20388;-80
2023/08/09 05:06:07;;;;;;;13.93;10.45;;;;;;;;;;5071781;28;20111;-79
2023/08/09 05:08:33;;;;;;;12.40;10.63;;;;;;;;;;5073119;28;20017;-79
2023/08/09 05:10:59;;;;;;;12.77;10.27;;;;;;;;;;5076887;28;20043;-79
2023/08/09 05:13:25;;;;;;;13.70;10.85;;;;;;;;;;5076548;28;20376;-79
2023/08/09 05:15:52;;;;;;;16.77;11.45;;;;;;;;;;5076751;28;20136;-78
2023/08/09 05:18:18;;;;;;;18.08;12.60;;;;;;;;;;5075394;28;20016;-77
2023/08/09 05:20:45;;;;;;;19.25;12.60;;;;;;;;;;5075902;28;20495;-81
2023/08/09 05:23:11;;;;;;;17.27;13.30;;;;;;;;;;5075153;28;20103;-80
2023/08/09 05:25:37;;;;;;;19.73;13.32;;;;;;;;;;5076723;28;20017;-80
2023/08/09 05:28:03;;;;;;;17.38;13.27;;;;;;;;;;5074852;28;20028;-77
2023/08/09 05:30:30;;;;;;;17.27;13.60;;;;;;;;;;5076245;28;20025;-78
2023/08/09 05:32:58;;;;;;;17.60;14.30;;;;;;;;;;5075070;28;20119;-76
2023/08/09 05:35:26;;;;;;;21.38;13.90;;;;;;;;;;5076263;28;20552;-77
2023/08/09 05:37:52;;;;;;;15.88;13.63;;;;;;;;;;5076209;28;20020;-79
2023/08/09 05:40:19;;;;;;;14.50;12.80;;;;;;;;;;5074941;28;20020;-80
2023/08/09 05:42:45;;;;;;;20.17;12.85;;;;;;;;;;5074714;28;20024;-80
2023/08/09 05:45:11;;;;;;;14.13;11.55;;;;;;;;;;5075033;28;20024;-78
2023/08/09 05:47:37;;;;;;;16.00;12.80;;;;;;;;;;5074517;28;20017;-78
2023/08/09 05:50:04;;;;;;;13.73;12.25;;;;;;;;;;5074634;28;20029;-77
2023/08/09 05:52:31;;;;;;;15.35;11.77;;;;;;;;;;5074696;28;20024;-80
2023/08/09 05:54:57;;;;;;;16.13;12.00;;;;;;;;;;5074765;28;20111;-77
2023/08/09 05:57:23;;;;;;;14.88;11.40;;;;;;;;;;5075974;28;20017;-79
2023/08/09 05:59:49;;;;;;;17.63;12.68;;;;;;;;;;5075955;28;20039;-77
2023/08/09 06:02:15;;;;;;;14.45;10.07;;;;;;;;;;5074644;28;20024;-77
2023/08/09 06:04:43;;;;;;;13.38;11.45;;;;;;;;;;5074292;28;20055;-78
2023/08/09 06:07:09;;;;;;;12.05;10.85;;;;;;;;;;5075875;28;20510;-76
2023/08/09 06:09:35;;;;;;;13.65;11.20;;;;;;;;;;5074152;28;20033;-75
2023/08/09 06:12:05;;;;;;;17.20;12.70;;;;;;;;;;5074599;28;20362;-80
2023/08/09 06:14:31;;;;;;;12.95;11.60;;;;;;;;;;5075977;28;20063;-75
2023/08/09 06:16:57;;;;;;;11.68;10.55;;;;;;;;;;5075027;28;20049;-80
2023/08/09 06:19:23;;;;;;;14.13;10.48;;;;;;;;;;5074051;28;20028;-77
2023/08/09 06:21:49;;;;;;;12.80;10.48;;;384.60;2329.60;;;;;;5074490;28;20380;-79
2023/08/09 06:24:15;;;;;;;12.90;9.65;;;384.40;2329.60;;;;;;5085875;28;20029;-76
2023/08/09 06:26:41;;;;;;;10.95;9.50;;;384.50;2329.60;;;;;;5077117;28;20029;-81
2023/08/09 06:29:08;;;;;;;11.13;9.98;;;384.40;2329.60;;;;;;5073992;28;20529;-77
2023/08/09 06:31:34;;;;;;;11.82;9.90;;;384.60;2329.60;;;;;;5073714;28;20029;-79
2023/08/09 06:34:00;;;;;;;10.55;9.48;;;384.70;2329.60;;;;;;5073993;28;20123;-79
2023/08/09 06:36:26;;;;;;;10.80;9.40;;;384.90;2329.60;;;;;;5073844;28;20025;-77
2023/08/09 06:38:52;;;;;;;12.43;10.23;;;409.60;2355.20;;;;;;5073484;28;20533;-81
2023/08/09 06:41:18;;;;;;;10.40;9.30;;;409.70;2355.20;;;;;;5074489;28;20040;-78
2023/08/09 06:43:43;;;;;;;12.55;10.57;;;409.90;2355.20;;;;;;5075199;28;20107;-79
2023/08/09 06:46:09;;;;;;;13.60;10.43;;;409.90;2355.20;;;;;;5088305;28;20396;-80
2023/08/09 06:48:35;;;;;;;15.45;9.27;;;410.00;2355.20;;;;;;5093867;28;20092;-79
2023/08/09 06:51:01;;;;;;;10.65;9.55;;;410.20;2355.20;;;;;;5093900;28;20020;-79
2023/08/09 06:53:27;;;;;;;13.70;10.05;;;410.30;2355.20;;;;;;5094717;28;20016;-79
2023/08/09 06:55:53;;;;;;;12.65;9.13;;;410.50;2355.20;;;;;;5093835;28;20364;-79
2023/08/09 06:58:19;;;;;;;12.60;9.25;;;435.20;2355.20;;;;;;5092148;28;20383;-77
2023/08/09 07:00:46;;;;;;;9.13;8.30;;;435.20;2355.20;;;;;;5093643;28;20028;-78
2023/08/09 07:03:12;;;;;;;9.85;8.57;;;435.30;2355.20;;;;;;5093605;28;20429;-77
2023/08/09 07:05:38;;;;;;;10.68;8.63;;;435.40;2355.20;;;;;;5093251;28;20089;-77
2023/08/09 07:08:04;;;;;;;9.68;8.68;;;435.60;2355.20;;;;;;5093479;28;20032;-78
2023/08/09 07:10:30;;;;;;;9.90;8.70;;;435.80;2355.20;;;;;;5094758;28;20035;-79
2023/08/09 07:12:56;;;;;;;9.63;7.50;;;435.80;2355.20;;;;;;5094150;28;20497;-78
2023/08/09 07:15:22;;;;;;;11.32;8.73;;;436.00;2355.20;;;;;;5094475;28;20048;-79
2023/08/09 07:17:48;;;;;;;9.43;8.32;;;436.10;2355.20;;;;;;5093428;28;20024;-76
2023/08/09 07:20:14;;;;;;;11.65;8.10;;;460.80;2380.80;;;;;;5094272;28;20111;-78
2023/08/09 07:22:41;;;;;;;11.25;7.13;;;460.90;2380.80;;;;;;5110328;28;20128;-80
2023/08/09 07:25:09;;;;;;;12.02;6.75;;;461.10;2380.80;;;;;;5094616;28;20056;-79
2023/08/09 07:27:49;;;;;;;10.82;7.43;;;461.10;2380.80;;;;;;5093390;28;20426;-81
2023/08/09 07:30:16;;;;;;;8.35;7.55;;;461.30;2380.80;;;;;;5092024;28;20071;-80
2023/08/09 07:32:43;;;;;;;8.65;7.75;;;461.50;2380.80;;;;;;5093128;28;20417;-80
2023/08/09 07:35:10;;;;;;;10.32;7.25;;;461.70;2380.80;;;;;;5093020;28;20032;-78
2023/08/09 07:37:38;;;;;;;10.88;7.10;;;486.50;2380.80;;;;;;5092999;28;20047;-75
2023/08/09 07:40:05;;;;;;;8.68;6.60;;;486.70;2380.80;;;;;;5092834;28;20059;-77
2023/08/09 07:42:31;;;;;;;8.13;7.32;;;486.60;2380.80;;;;;;5088782;28;20028;-77
2023/08/09 07:44:58;;;;;;;10.40;6.82;;;486.60;2380.80;;;;;;5092721;28;20016;-78
2023/08/09 07:47:24;;;;;;;7.38;6.55;;;486.70;2380.80;;;;;;5092065;28;20487;-78
2023/08/09 07:49:50;;;;;;;8.43;7.45;;;486.70;2380.80;;;;;;5090937;28;20043;-79
2023/08/09 07:52:16;;;;;;;8.52;7.10;;;486.70;2380.80;;;;;;5091540;28;20048;-77
2023/08/09 07:54:43;;;;;;;11.05;7.50;;;486.80;2380.80;;;;;;5091117;28;20032;-76
2023/08/09 07:57:09;;;;;;;10.27;7.10;;;486.90;2380.80;;;;;;5091851;28;20024;-76
2023/08/09 07:59:35;;;;;;;7.97;7.07;;;487.10;2380.80;;;;;;5091204;28;20028;-75
2023/08/09 08:02:01;;;;;;;9.88;6.78;;;512.10;2380.80;;;;;;5091232;28;20123;-77
2023/08/09 08:04:26;;;;;;;7.10;6.07;;;512.30;2380.80;;;;;;5091245;28;20126;-76
2023/08/09 08:06:52;;;;;;;8.18;5.90;;;512.50;2380.80;;;;;;5091406;28;20058;-78
2023/08/09 08:09:18;;;;;;;8.80;6.03;;;512.70;2380.80;;;;;;5090894;28;20028;-76
2023/08/09 08:11:44;;;;;;;8.63;6.45;;;512.90;2380.80;;;;;;5091225;28;20082;-76
2023/08/09 08:14:10;;;;;;;5.57;4.90;;;537.70;2406.40;;;;;;5091402;28;20048;-78
2023/08/09 08:16:37;;;;;;;10.98;5.20;;;537.90;2406.40;;;;;;5090667;28;20055;-76
2023/08/09 08:19:03;;;;;;;6.75;4.50;;;538.10;2406.40;;;;;;5091170;28;20073;-78
2023/08/09 08:21:29;;;;;;;8.07;5.22;;;538.00;2406.40;;;;;;5091194;28;20036;-76
2023/08/09 08:23:56;;;;;;;5.97;5.13;;;538.30;2406.40;;;;;;5090442;28;20028;-77
2023/08/09 08:26:23;;;;;;;8.50;6.90;;;538.40;2406.40;;;;;;5074465;28;20040;-76
2023/08/09 08:28:48;;;;;;;9.80;6.80;;;538.50;2406.40;;;;;;5093417;28;20459;-76
2023/08/09 08:31:19;;;;;;;6.93;5.75;;;563.30;2432.00;;;;;;5092048;28;20024;-75
2023/08/09 08:33:49;;;;;;;7.85;4.97;;;563.40;2432.00;;;;;;5091914;28;20020;-76
2023/08/09 08:36:16;;;;;;;6.55;4.88;;;563.40;2432.00;;;;;;5092199;28;20047;-76
2023/08/09 08:38:42;;;;;;;6.15;4.88;;;563.50;2432.00;;;;;;5093576;28;20468;-80
2023/08/09 08:41:09;;;;;;;5.35;4.50;;;563.70;2432.00;;;;;;5094051;28;20059;-77
2023/08/09 08:43:34;;;;;;;7.45;5.53;;;563.40;2432.00;;;;;;5095429;28;20028;-79
2023/08/09 08:46:04;;;;;;;6.30;4.80;;;564.10;2432.00;;;;;;5096293;28;20024;-78
2023/08/09 08:48:32;;;;;;;6.13;5.05;;;564.10;2432.00;;;;;;5096182;28;20035;-79
2023/08/09 08:51:00;;;;;;;6.70;4.05;;;588.90;2432.00;;;;;;5096687;28;20031;-77
2023/08/09 08:53:27;;;;;;;7.90;4.03;;;589.00;2432.00;;;;;;5096350;28;20483;-79
2023/08/09 08:55:54;;;;;;;6.65;4.22;;;589.00;2432.00;;;;;;5079313;28;20028;-79
2023/08/09 08:58:20;;;;;;;6.18;4.75;;;589.10;2432.00;;;;;;5095694;28;20024;-80
2023/08/09 09:00:46;;;;;;;5.57;4.25;;;;;;;;;;5095213;28;20028;-79
2023/08/09 09:03:14;;;;;;;5.78;3.92;;;;;;;;;;5095655;28;20032;-78
2023/08/09 09:05:40;;;;;;;5.13;3.53;;;;;;;;;;5094768;28;20028;-79
2023/08/09 09:08:06;;;;;;;9.00;3.70;;;;;;;;;;5094464;28;20020;-80
2023/08/09 09:10:33;;;;;;;9.63;3.58;;;;;;;;;;5096151;28;20031;-78
2023/08/09 09:12:59;;;;;;;6.40;5.03;;;;;;;;;;5094802;28;20056;-79
2023/08/09 09:15:27;;;;;;;9.57;3.60;;;;;;;;;;5094171;28;20052;-83
2023/08/09 09:17:53;;;;;;;25.42;3.95;;;;;;;;;;5094438;28;20066;-80
2023/08/09 09:20:23;;;;;;;7.40;3.72;;;615.00;2406.40;;;;;;5094536;28;20077;-79
2023/08/09 09:22:53;;;;;;;3.78;2.90;;;615.10;2380.80;;;;;;5093920;28;20540;-81
2023/08/09 09:25:19;;;;;;;6.10;4.40;;;615.10;2355.20;;;;;;5095908;28;20028;-80
2023/08/09 09:27:52;;;;;;;7.20;3.88;;;615.20;2380.80;;;;;;5093127;28;20074;-79
2023/08/09 09:30:21;;;;;;;4.65;2.75;;;615.30;2355.20;;;;;;5088627;28;20423;-81
2023/08/09 09:32:57;;;;;;;4.90;2.83;;;615.20;2329.60;;;;;;5074839;28;20435;-79
2023/08/09 09:35:31;;;;;;;6.32;3.47;;;615.10;2329.60;;;;;;5075091;28;20033;-79
2023/08/09 09:37:59;;;;;;;4.72;2.70;;;640.00;2355.20;;;;;;5083687;28;20046;-81
2023/08/09 09:40:29;;;;;;;4.28;2.40;;;640.50;2304.00;;;;;;5094473;28;20051;-80
2023/08/09 09:42:56;;;;;;;4.75;2.58;;;640.60;2252.80;;;;;;5091657;28;20077;-79
2023/08/09 09:45:24;;;;;;;5.53;3.67;;;640.50;2252.80;;;;;;5084182;28;20028;-79
2023/08/09 09:47:51;;;;;;;5.47;2.65;;;;;;;;;;5087202;28;20466;-80
2023/08/09 09:50:18;;;;;;;4.40;2.83;;;;;;;;;;5099469;28;20036;-81
2023/08/09 09:52:46;;;;;;;6.28;4.05;;;;;;;;;;5100036;28;20077;-78
2023/08/09 09:55:14;;;;;;;6.82;2.58;;;665.60;2252.80;;;;;;5093214;28;20031;-80
2023/08/09 09:57:40;;;;;;;6.47;4.10;;;640.80;2201.60;;;;;;5094278;28;20024;-79
2023/08/09 10:00:32;;;;;;;8.07;3.75;;;640.80;2201.60;;;;;;5095032;28;20036;-81
2023/08/09 10:02:59;;;;;;;7.22;4.00;;;;;;;;;;5089836;28;20037;-79
2023/08/09 10:05:35;;;;;;;6.88;3.28;;;665.60;2227.20;;;;;;5094448;28;20031;-81
2023/08/09 10:08:07;;;;;;;4.55;2.67;;;665.80;2227.20;;;;;;5094562;28;20032;-79
2023/08/09 10:10:36;;;;;;;4.10;2.63;;;666.00;2227.20;;;;;;5094820;28;20479;-80
2023/08/09 10:13:05;;;;;;;4.68;3.08;;;666.00;2176.00;;;;;;5094281;28;20024;-78
2023/08/09 10:15:42;;;;;;;6.00;4.30;;;666.30;2176.00;;;;;;5093536;28;20044;-79
2023/08/09 10:18:15;;;;;;;4.95;2.88;;;;;;;;;;5093230;28;20092;-79
2023/08/09 10:20:47;;;;;;;3.65;2.10;;;;;;;;;;5092649;28;20031;-79
2023/08/09 10:23:25;;;;;;;3.95;2.22;;;;;;;;;;5093390;28;20023;-78
2023/08/09 10:25:53;;;;;;;3.60;2.03;;;;;;;;;;5091681;28;20032;-80
2023/08/09 10:28:45;;;;;;;4.75;2.30;;;;;;;;;;5090624;28;20111;-79
2023/08/09 10:31:15;;;;;;;6.47;2.70;;;;;;;;;;5092999;28;20503;-79
2023/08/09 10:34:11;;;;;;;5.22;2.70;;;;;;;;;;5093627;28;20031;-80
2023/08/09 10:36:37;;;;;;;6.80;3.20;;;;;;;;;;5092721;28;20073;-80
2023/08/09 10:39:10;;;;;;;4.32;2.60;;;;;;;;;;5093398;28;20020;-81
2023/08/09 10:41:36;;;;;;;4.00;2.72;;;;;;;;;;5090864;28;20033;-80
2023/08/09 10:44:06;;;;;;;5.70;3.15;;;;;;;;;;5075364;28;20077;-77
2023/08/09 10:46:40;;;;;;;4.50;2.30;;;;;;;;;;5089990;28;20483;-80
2023/08/09 10:49:06;;;;;;;4.30;2.35;;;;;;;;;;5093233;28;20039;-79
2023/08/09 10:51:33;;;;;;;5.82;2.40;;;;;;;;;;5090994;28;20501;-79
2023/08/09 10:53:59;;;;;;;4.85;2.88;;;;;;;;;;5092746;28;20027;-79
2023/08/09 10:56:28;;;;;;;7.47;2.95;;;;;;;;;;5085687;28;20036;-80
2023/08/09 10:58:54;;;;;;;3.95;2.40;;;;;;;;;;5094443;28;20459;-79
2023/08/09 11:01:25;;;;;;;6.05;2.88;;;;;;;;;;5093666;28;20047;-77
2023/08/09 11:03:56;;;;;;;4.72;3.17;;;;;;;;;;5092278;28;20498;-79
2023/08/09 11:06:33;;;;;;;6.53;2.75;;;717.00;2073.60;;;;;;5090279;28;20079;-77
2023/08/09 11:09:27;;;;;;;5.53;3.00;;;717.20;2099.20;;;;;;5091452;28;20020;-78
2023/08/09 11:11:53;;;;;;;4.63;2.00;;;717.10;1945.60;;;;;;5088091;28;20376;-78
2023/08/09 11:14:21;;;;;;;7.20;3.00;;;717.20;1971.20;;;;;;5091906;28;20028;-78
2023/08/09 11:16:48;;;;;;;4.53;2.40;;;717.10;1971.20;;;;;;5092364;28;20043;-78
2023/08/09 11:19:16;;;;;;;4.47;2.55;;;717.00;1971.20;;;;;;5092462;28;20123;-78
2023/08/09 11:21:46;;;;;;;3.47;2.42;;;717.10;1945.60;;;;;;5093810;28;20059;-78
2023/08/09 11:24:14;;;;;;;3.22;2.20;;;717.30;1920.00;;;;;;5094086;28;20048;-76
2023/08/09 11:26:55;;;;;;;4.90;1.83;;;717.00;1945.60;;;;;;5089334;28;20111;-78
2023/08/09 11:29:26;;;;;;;3.15;2.00;;;717.40;1920.00;;;;;;5073501;28;20032;-77
2023/08/09 11:31:54;;;;;;;3.65;2.17;;;717.50;1971.20;;;;;;5071689;28;20025;-79
2023/08/09 11:34:21;;;;;;;8.13;2.90;;;717.50;2022.40;;;;;;5072717;28;20051;-78
2023/08/09 11:36:50;;;;;;;5.10;2.67;;;717.50;1920.00;;;;;;5072788;28;20475;-78
2023/08/09 11:39:17;;;;;;;5.28;3.22;;;;;;;;;;5072176;28;20034;-77
2023/08/09 11:41:53;;;;;;;4.15;2.65;;;;;;;;;;5089834;28;20032;-77
2023/08/09 11:44:28;;;;;;;4.18;2.50;;;;;;;;;;5089599;28;20107;-78
2023/08/09 11:46:55;;;;;;;4.80;1.90;;;;;;;;;;5092156;28;20016;-77
2023/08/09 11:49:27;;;;;;;3.85;2.00;;;;;;;;;;5092644;28;20115;-78
2023/08/09 11:51:53;;;;;;;3.30;1.85;;;;;;;;;;5093663;28;20094;-78
2023/08/09 11:54:19;;;;;;;5.78;2.55;;;;;;;;;;5092239;28;20059;-78
2023/08/09 11:56:45;;;;;;;4.68;1.90;;;;;;;;;;5093082;28;20052;-78
2023/08/09 11:59:16;;;;;;;7.35;2.38;;;;;;;;;;5092193;28;20454;-80
2023/08/09 12:01:44;;;;;;;5.07;2.30;;;;;;;;;;5091973;28;20032;-81
2023/08/09 12:04:11;;;;;;;4.35;2.72;;;;;;;;;;5092036;28;20571;-80
2023/08/09 12:06:37;;;;;;;5.47;2.83;;;;;;;;;;5092814;28;20391;-80
2023/08/09 12:09:22;;;;;;;6.75;2.15;;;;;;;;;;5092583;28;20016;-79
2023/08/09 12:11:49;;;;;;;4.38;2.58;;;;;;;;;;5091297;28;20127;-81
2023/08/09 12:14:15;;;;;;;3.63;2.22;;;;;;;;;;5091790;28;20118;-79
2023/08/09 12:16:41;;;;;;;5.03;2.33;;;;;;;;;;5092084;28;20110;-81
2023/08/09 12:19:07;;;;;;;6.50;2.30;;;;;;;;;;5092380;28;20113;-81
2023/08/09 12:21:33;;;;;;;3.13;2.20;;;;;;;;;;5094176;28;20020;-79
2023/08/09 12:24:00;;;;;;;7.22;3.47;;;;;;;;;;5092612;28;20028;-80
2023/08/09 12:26:28;;;;;;;3.13;2.10;;;;;;;;;;5093697;28;20495;-81
2023/08/09 12:28:54;;;;;;;5.53;2.58;;;;;;;;;;5092629;28;20024;-80
2023/08/09 12:31:20;;;;;;;6.05;3.13;;;;;;;;;;5093628;28;20028;-80
2023/08/09 12:33:47;;;;;;;4.28;2.70;;;;;;;;;;5091037;28;20055;-81
2023/08/09 12:36:13;;;;;;;3.58;2.20;;;;;;;;;;5093287;28;20119;-81
2023/08/09 12:38:39;;;;;;;3.00;1.80;;;;;;;;;;5092770;28;20026;-80
2023/08/09 12:41:05;;;;;;;4.95;2.60;;;;;;;;;;5091702;28;20077;-79
2023/08/09 12:43:31;;;;;;;5.53;2.65;;;;;;;;;;5091545;28;20020;-83
2023/08/09 12:45:59;;;;;;;7.72;2.88;;;;;;;;;;5087063;28;20028;-82
2023/08/09 12:48:25;;;;;;;5.47;4.15;;;;;;;;;;5092078;28;20016;-83
2023/08/09 12:50:51;;;;;;;4.70;2.55;;;;;;;;;;5091739;28;20043;-81
2023/08/09 12:53:18;;;;;;;3.63;2.67;;;;;;;;;;5091217;28;20020;-81
2023/08/09 12:55:44;;;;;;;4.03;1.90;;;;;;;;;;5092928;28;20016;-79
2023/08/09 12:58:10;;;;;;;3.55;2.10;;;;;;;;;;5092761;28;20479;-79
2023/08/09 13:00:36;;;;;;;3.33;1.85;;;;;;;;;;5090222;28;20165;-79
2023/08/09 13:03:03;;;;;;;3.65;2.08;;;;;;;;;;5091300;28;20115;-79
2023/08/09 13:05:29;;;;;;;3.67;1.95;;;;;;;;;;5093716;28;20077;-79
2023/08/09 13:07:55;;;;;;;3.95;2.22;;;;;;;;;;5092657;28;20020;-79
2023/08/09 13:10:21;;;;;;;4.28;2.83;;;;;;;;;;5092889;28;20111;-79
2023/08/09 13:12:48;;;;;;;6.15;2.50;;;;;;;;;;5077577;28;20024;-80
2023/08/09 13:15:15;;;;;;;3.88;2.25;;;;;;;;;;5091013;28;20406;-79
2023/08/09 13:17:41;;;;;;;3.75;2.40;;;;;;;;;;5091456;28;20382;-78
2023/08/09 13:20:13;;;;;;;4.53;2.85;;;794.20;1792.00;;;;;;5091212;28;20062;-80
2023/08/09 13:22:47;;;;;;;3.67;2.17;;;794.20;1817.60;;;;;;5092707;28;20047;-79
2023/08/09 13:25:13;;;;;;;4.28;2.63;;;794.20;1817.60;;;;;;5091619;28;20028;-81
2023/08/09 13:27:39;;;;;;;5.55;3.00;;;794.30;1817.60;;;;;;5089467;28;20033;-79
2023/08/09 13:30:09;;;;;;;3.83;2.50;;;794.30;1843.20;;;;;;5093852;28;20028;-80
2023/08/09 13:32:36;;;;;;;4.97;2.30;;;794.20;1792.00;;;;;;5095173;28;20029;-80
2023/08/09 13:35:02;;;;;;;8.65;4.20;;;794.20;1792.00;;;;;;5096141;28;20016;-80
2023/08/09 13:37:28;;;;;;;4.22;2.50;;;794.50;1792.00;;;;;;5095358;28;20031;-79